Terminal Aerodrome Forecast
Issued by NWS Cleveland, OH

Home | Current Version | Previous Version | Text Only | Print | Product List | Glossary Off
Versions: 1 2 3 4 5 6 7 8 9 10 11 12 13 14 15 16 17 18

574
FTUS41 KCLE 091722
TAFYNG
TAF
KYNG 091722Z 0918/1018 25012KT P6SM OVC015
     FM092200 27010KT 5SM -SN OVC012
      TEMPO 0922/1002 2SM -SN BR OVC006
     FM100200 26014KT 5SM -SN OVC008
     FM100800 26014KT 3SM HZ OVC008
     FM101400 27012KT 2SM -SN OVC012=

USA.gov is the U.S. government's official web portal to all federal, state and local government web resources and services.